createdAt,value
2017-10-05T00:02:24.889Z,91.70
2017-10-05T00:04:52.439Z,91.40
2017-10-05T00:07:19.897Z,91.50
2017-10-05T00:09:47.477Z,91.50
2017-10-05T00:12:14.953Z,91.30
2017-10-05T00:14:42.470Z,91.50
2017-10-05T00:17:10.040Z,91.40
2017-10-05T00:19:37.498Z,91.40
2017-10-05T00:22:05.060Z,92.00
2017-10-05T00:24:33.310Z,92.70
2017-10-05T00:27:00.778Z,92.70
2017-10-05T00:29:28.261Z,93.10
2017-10-05T00:31:56.486Z,93.80
2017-10-05T00:34:23.985Z,93.80
2017-10-05T00:36:51.437Z,94.10
2017-10-05T00:39:18.990Z,94.10
2017-10-05T00:41:46.614Z,94.40
2017-10-05T00:44:14.110Z,94.60
2017-10-05T00:46:41.681Z,94.50
2017-10-05T00:49:09.122Z,94.50
2017-10-05T00:51:36.592Z,94.90
2017-10-05T00:54:04.038Z,95.40
2017-10-05T00:56:31.701Z,95.30
2017-10-05T00:58:59.262Z,95.20
2017-10-05T01:01:26.817Z,95.20
2017-10-05T01:03:54.274Z,95.40
2017-10-05T01:06:21.838Z,95.30
2017-10-05T01:08:49.399Z,95.50
2017-10-05T01:11:16.869Z,95.60
2017-10-05T01:13:44.321Z,95.60
2017-10-05T01:16:11.778Z,95.50
2017-10-05T01:18:39.334Z,95.50
2017-10-05T01:21:06.801Z,95.50
2017-10-05T01:23:34.250Z,95.60
2017-10-05T01:26:01.715Z,95.70
2017-10-05T01:28:31.309Z,95.70
2017-10-05T01:30:58.875Z,96.00
2017-10-05T01:33:26.321Z,96.30
2017-10-05T01:35:53.893Z,96.80
2017-10-05T01:38:21.437Z,96.90
2017-10-05T01:40:48.899Z,97.00
2017-10-05T01:43:16.466Z,97.30
2017-10-05T01:45:43.921Z,97.50
2017-10-05T01:48:11.370Z,97.50
2017-10-05T01:50:38.830Z,97.50
2017-10-05T01:53:06.278Z,97.90
2017-10-05T01:55:33.731Z,98.00
2017-10-05T01:58:01.297Z,98.10
2017-10-05T02:00:28.790Z,98.40
2017-10-05T02:02:57.047Z,98.70
2017-10-05T02:05:24.498Z,98.70
2017-10-05T02:07:52.058Z,98.90
2017-10-05T02:10:19.515Z,98.90
2017-10-05T02:12:46.986Z,99.00
2017-10-05T02:15:14.530Z,99.00
2017-10-05T02:17:42.092Z,99.30
2017-10-05T02:20:09.646Z,99.00
2017-10-05T02:22:37.274Z,99.00
2017-10-05T02:25:04.772Z,99.20
2017-10-05T02:27:32.325Z,99.10
2017-10-05T02:29:59.784Z,98.70
2017-10-05T02:32:27.270Z,98.70
2017-10-05T02:34:55.493Z,99.10
2017-10-05T02:37:22.946Z,99.10
2017-10-05T02:39:50.402Z,99.30
2017-10-05T02:42:17.898Z,99.20
2017-10-05T02:44:45.458Z,99.30
2017-10-05T02:47:13.011Z,99.40
2017-10-05T02:49:41.295Z,99.80
2017-10-05T02:52:08.851Z,99.70
2017-10-05T02:54:36.405Z,99.60
2017-10-05T02:57:03.862Z,99.60
2017-10-05T02:59:31.319Z,99.90
2017-10-05T03:01:58.802Z,99.90
2017-10-05T03:04:26.334Z,99.90
2017-10-05T03:06:53.793Z,99.90
2017-10-05T03:09:21.350Z,99.90
2017-10-05T03:11:48.801Z,99.90
2017-10-05T03:14:16.253Z,99.90
2017-10-05T03:16:43.725Z,99.90
2017-10-05T03:19:11.193Z,99.90
2017-10-05T03:21:38.743Z,99.90
2017-10-05T03:24:06.298Z,99.90
2017-10-05T03:26:33.790Z,99.90
2017-10-05T03:29:01.998Z,99.90
2017-10-05T03:31:29.489Z,99.90
2017-10-05T03:33:56.947Z,99.80
2017-10-05T03:36:24.404Z,99.90
2017-10-05T03:38:51.859Z,99.90
2017-10-05T03:41:19.421Z,99.90
2017-10-05T03:43:46.873Z,99.90
2017-10-05T03:46:14.330Z,99.90
2017-10-05T03:48:41.782Z,99.90
2017-10-05T03:51:09.253Z,99.90
2017-10-05T03:53:36.707Z,99.90
2017-10-05T03:56:04.160Z,99.90
2017-10-05T03:58:31.625Z,99.90
2017-10-05T04:00:59.081Z,99.90
2017-10-05T04:03:26.541Z,99.90
2017-10-05T04:05:53.985Z,99.90
2017-10-05T04:08:21.442Z,99.90
2017-10-05T04:10:48.894Z,99.90
2017-10-05T04:13:16.369Z,99.90
2017-10-05T04:15:43.946Z,99.90
2017-10-05T04:18:12.191Z,99.90
2017-10-05T04:20:39.630Z,99.90
2017-10-05T04:23:07.117Z,99.70
2017-10-05T04:25:34.668Z,99.00
2017-10-05T04:28:02.235Z,99.00
2017-10-05T04:30:29.804Z,98.90
2017-10-05T04:32:57.365Z,98.10
2017-10-05T04:35:24.917Z,97.40
2017-10-05T04:37:52.377Z,96.70
2017-10-05T04:40:19.889Z,95.40
2017-10-05T04:42:47.383Z,94.60
2017-10-05T04:45:14.838Z,94.30
2017-10-05T04:47:42.314Z,94.30
2017-10-05T04:50:09.869Z,93.70
2017-10-05T04:52:37.325Z,92.90
2017-10-05T04:55:04.784Z,92.60
2017-10-05T04:57:32.230Z,92.30
2017-10-05T04:59:59.698Z,93.30
2017-10-05T05:02:27.141Z,92.00
2017-10-05T05:04:54.598Z,91.30
2017-10-05T05:07:22.058Z,91.30
2017-10-05T05:09:49.511Z,91.40
2017-10-05T05:12:16.995Z,91.50
2017-10-05T05:14:44.445Z,91.60
2017-10-05T05:17:11.985Z,91.40
2017-10-05T05:19:39.447Z,91.30
2017-10-05T05:22:06.910Z,91.10
2017-10-05T05:24:34.358Z,91.30
2017-10-05T05:27:01.809Z,91.20
2017-10-05T05:29:29.305Z,91.10
2017-10-05T05:31:57.562Z,91.30
2017-10-05T05:34:25.018Z,91.10
2017-10-05T05:36:52.501Z,91.20
2017-10-05T05:39:20.716Z,91.10
2017-10-05T05:41:48.183Z,91.00
2017-10-05T05:44:15.665Z,91.10
2017-10-05T05:46:43.226Z,91.00
2017-10-05T05:49:10.790Z,91.70
2017-10-05T05:51:38.385Z,91.50
2017-10-05T05:54:05.902Z,91.30
2017-10-05T05:56:33.357Z,91.40
2017-10-05T05:59:00.810Z,91.60
2017-10-05T06:01:28.294Z,91.30
2017-10-05T06:03:55.745Z,91.40
2017-10-05T06:06:23.206Z,91.10
2017-10-05T06:08:50.755Z,90.90
2017-10-05T06:11:18.312Z,90.90
2017-10-05T06:13:45.868Z,90.60
2017-10-05T06:16:13.317Z,90.00
2017-10-05T06:18:40.779Z,85.30
2017-10-05T06:21:08.235Z,84.80
2017-10-05T06:23:35.698Z,82.90
2017-10-05T06:26:03.261Z,79.50
2017-10-05T06:28:30.817Z,76.40
2017-10-05T06:30:58.278Z,74.10
2017-10-05T06:33:25.745Z,71.20
2017-10-05T06:35:53.969Z,67.50
2017-10-05T06:38:21.430Z,67.50
2017-10-05T06:40:48.886Z,67.40
2017-10-05T06:43:16.350Z,64.40
2017-10-05T06:45:43.830Z,63.50
2017-10-05T06:48:11.293Z,61.90
2017-10-05T06:50:38.801Z,60.80
2017-10-05T06:53:06.314Z,59.80
2017-10-05T06:55:33.866Z,59.50
2017-10-05T06:58:01.391Z,58.60
2017-10-05T07:00:28.841Z,57.70
2017-10-05T07:02:56.297Z,57.60
2017-10-05T07:05:23.750Z,57.40
2017-10-05T07:07:51.250Z,57.80
2017-10-05T07:10:18.718Z,57.10
2017-10-05T07:12:46.166Z,56.80
2017-10-05T07:15:13.731Z,55.40
2017-10-05T07:17:41.177Z,54.00
2017-10-05T07:20:08.645Z,53.20
2017-10-05T07:22:36.101Z,52.90
2017-10-05T07:25:03.671Z,52.70
2017-10-05T07:27:31.109Z,52.60
2017-10-05T07:29:58.611Z,53.20
2017-10-05T07:32:26.826Z,53.50
2017-10-05T07:34:54.290Z,53.50
2017-10-05T07:37:21.760Z,53.70
2017-10-05T07:39:49.234Z,54.30
2017-10-05T07:42:16.779Z,54.70
2017-10-05T07:44:44.237Z,55.40
2017-10-05T07:47:11.692Z,55.30
2017-10-05T07:49:39.152Z,54.80
2017-10-05T07:52:06.715Z,54.00
2017-10-05T07:54:34.270Z,53.90
2017-10-05T07:57:01.749Z,52.90
2017-10-05T07:59:29.233Z,52.40
2017-10-05T08:01:56.701Z,52.90
2017-10-05T08:04:24.158Z,52.10
2017-10-05T08:06:51.622Z,52.10
2017-10-05T08:09:19.093Z,51.40
2017-10-05T08:11:46.581Z,51.30
2017-10-05T08:14:14.029Z,51.00
2017-10-05T08:16:41.485Z,51.60
2017-10-05T08:19:09.050Z,51.60
2017-10-05T08:21:36.637Z,51.10
2017-10-05T08:24:04.881Z,49.10
2017-10-05T08:26:32.350Z,49.10
2017-10-05T08:28:59.808Z,48.00
2017-10-05T08:31:27.250Z,48.10
2017-10-05T08:33:54.705Z,47.70
2017-10-05T08:36:22.157Z,45.80
2017-10-05T08:38:49.626Z,45.80
2017-10-05T08:41:17.095Z,45.10
2017-10-05T08:43:44.541Z,45.20
2017-10-05T08:46:11.997Z,43.90
2017-10-05T08:48:39.477Z,42.90
2017-10-05T08:51:07.703Z,42.60
2017-10-05T08:53:35.154Z,42.00
2017-10-05T08:56:02.646Z,42.30
2017-10-05T08:58:30.098Z,41.40
2017-10-05T09:00:57.672Z,40.90
2017-10-05T09:03:25.125Z,41.10
2017-10-05T09:05:53.350Z,40.30
2017-10-05T09:08:20.824Z,40.30
2017-10-05T09:10:48.277Z,39.70
2017-10-05T09:13:15.741Z,39.30
2017-10-05T09:15:43.220Z,39.60
2017-10-05T09:18:10.690Z,38.70
2017-10-05T09:20:38.154Z,39.20
2017-10-05T09:23:05.601Z,37.10
2017-10-05T09:25:33.173Z,37.50
2017-10-05T09:28:00.629Z,36.10
2017-10-05T09:30:28.174Z,36.70
2017-10-05T09:32:55.626Z,36.10
2017-10-05T09:35:23.155Z,36.50
2017-10-05T09:37:50.607Z,35.10
2017-10-05T09:40:18.053Z,35.00
2017-10-05T09:42:45.515Z,35.40
2017-10-05T09:45:12.985Z,35.20
2017-10-05T09:47:40.445Z,34.40
2017-10-05T09:50:07.938Z,33.60
2017-10-05T09:52:35.498Z,33.90
2017-10-05T09:55:02.944Z,33.30
2017-10-05T09:57:30.433Z,33.20
2017-10-05T09:59:57.965Z,31.60
2017-10-05T10:02:25.421Z,32.00
2017-10-05T10:04:52.874Z,32.10
2017-10-05T10:07:20.338Z,32.60
2017-10-05T10:09:47.816Z,31.90
2017-10-05T10:12:15.353Z,32.10
2017-10-05T10:14:42.813Z,29.90
2017-10-05T10:17:10.286Z,30.40
2017-10-05T10:19:37.898Z,29.30
2017-10-05T10:22:05.409Z,29.00
2017-10-05T10:24:32.913Z,28.60
2017-10-05T10:27:00.368Z,28.50
2017-10-05T10:29:27.818Z,28.50
2017-10-05T10:31:55.269Z,28.00
2017-10-05T10:34:22.729Z,27.70
2017-10-05T10:36:50.205Z,26.90
2017-10-05T10:39:17.670Z,26.70
2017-10-05T10:41:45.123Z,26.90
2017-10-05T10:44:12.581Z,26.40
2017-10-05T10:46:40.035Z,26.30
2017-10-05T10:49:07.490Z,25.50
2017-10-05T10:51:34.943Z,26.10
2017-10-05T10:54:02.402Z,26.60
2017-10-05T10:56:29.893Z,26.30
2017-10-05T10:58:57.354Z,25.30
2017-10-05T11:01:24.806Z,25.40
2017-10-05T11:03:52.333Z,24.50
2017-10-05T11:06:19.791Z,24.10
2017-10-05T11:08:47.246Z,24.30
2017-10-05T11:11:14.698Z,24.20
2017-10-05T11:13:42.218Z,23.80
2017-10-05T11:16:09.669Z,23.40
2017-10-05T11:18:37.177Z,23.70
2017-10-05T11:21:04.670Z,24.20
2017-10-05T11:23:32.125Z,24.00
2017-10-05T11:25:59.591Z,23.20
2017-10-05T11:28:27.045Z,22.50
2017-10-05T11:30:54.512Z,22.50
2017-10-05T11:33:22.060Z,22.70
2017-10-05T11:35:49.617Z,23.00
2017-10-05T11:38:17.078Z,22.60
2017-10-05T11:40:44.534Z,21.40
2017-10-05T11:43:12.159Z,21.20
2017-10-05T11:45:39.600Z,21.90
2017-10-05T11:48:07.047Z,21.70
2017-10-05T11:50:35.291Z,21.80
2017-10-05T11:53:02.746Z,21.80
2017-10-05T11:55:30.206Z,21.90
2017-10-05T11:57:57.677Z,21.40
2017-10-05T12:00:25.125Z,21.80
2017-10-05T12:02:52.581Z,22.30
2017-10-05T12:05:20.026Z,21.20
2017-10-05T12:07:47.494Z,21.10
2017-10-05T12:10:14.946Z,20.70
2017-10-05T12:12:42.441Z,21.30
2017-10-05T12:15:10.658Z,21.30
2017-10-05T12:17:38.113Z,21.30
2017-10-05T12:20:05.591Z,22.10
2017-10-05T12:22:33.157Z,21.40
2017-10-05T12:25:00.614Z,22.20
2017-10-05T12:27:28.065Z,22.50
2017-10-05T12:29:55.621Z,22.30
2017-10-05T12:32:23.177Z,21.90
2017-10-05T12:34:50.629Z,21.60
2017-10-05T12:37:18.083Z,21.80
2017-10-05T12:39:45.539Z,21.70
2017-10-05T12:42:13.010Z,21.00
2017-10-05T12:44:40.486Z,21.40
2017-10-05T12:47:08.706Z,21.60
2017-10-05T12:49:36.198Z,21.30
2017-10-05T12:52:03.756Z,21.60
2017-10-05T12:54:31.232Z,21.60
2017-10-05T12:56:58.794Z,21.30
2017-10-05T12:59:26.255Z,21.40
2017-10-05T13:01:54.481Z,21.40
2017-10-05T13:04:21.974Z,21.30
2017-10-05T13:06:49.434Z,21.30
2017-10-05T13:09:16.982Z,21.00
2017-10-05T13:11:44.545Z,21.10
2017-10-05T13:14:12.010Z,21.30
2017-10-05T13:16:39.477Z,20.90
2017-10-05T13:19:07.719Z,21.60
2017-10-05T13:21:35.189Z,21.60
2017-10-05T13:24:02.758Z,21.50
2017-10-05T13:26:30.210Z,21.40
2017-10-05T13:28:57.780Z,21.30
2017-10-05T13:31:25.235Z,22.00
2017-10-05T13:33:52.789Z,21.60
2017-10-05T13:36:20.342Z,22.10
2017-10-05T13:38:47.878Z,22.20
2017-10-05T13:41:15.338Z,22.60
2017-10-05T13:43:42.794Z,23.00
2017-10-05T13:46:10.257Z,23.40
2017-10-05T13:48:37.735Z,24.20
2017-10-05T13:51:05.289Z,24.60
2017-10-05T13:53:32.857Z,24.10
2017-10-05T13:56:00.319Z,23.70
2017-10-05T13:58:27.861Z,23.60
2017-10-05T14:00:55.429Z,24.00
2017-10-05T14:03:22.998Z,24.10
2017-10-05T14:05:50.464Z,24.50
2017-10-05T14:08:17.917Z,24.70
2017-10-05T14:10:45.373Z,25.40
2017-10-05T14:13:12.836Z,25.70
2017-10-05T14:15:40.373Z,26.30
2017-10-05T14:18:07.958Z,26.60
2017-10-05T14:20:36.206Z,26.80
2017-10-05T14:23:03.669Z,26.80
2017-10-05T14:25:31.135Z,27.00
2017-10-05T14:27:58.594Z,27.30
2017-10-05T14:30:26.071Z,27.20
2017-10-05T14:32:54.289Z,27.30
2017-10-05T14:35:21.746Z,27.30
2017-10-05T14:37:49.202Z,27.10
2017-10-05T14:40:16.658Z,27.40
2017-10-05T14:42:44.167Z,27.50
2017-10-05T14:45:11.773Z,27.80
2017-10-05T14:47:39.231Z,28.10
2017-10-05T14:50:06.682Z,28.20
2017-10-05T14:52:34.177Z,28.30
2017-10-05T14:55:01.637Z,28.50
2017-10-05T14:57:29.093Z,28.70
2017-10-05T14:59:56.545Z,29.10
2017-10-05T15:02:24.023Z,29.50
2017-10-05T15:04:51.485Z,29.80
2017-10-05T15:07:19.738Z,30.00
2017-10-05T15:09:47.196Z,30.00
2017-10-05T15:12:14.650Z,30.20
2017-10-05T15:14:42.226Z,30.60
2017-10-05T15:17:09.670Z,30.90
2017-10-05T15:19:37.121Z,31.00
2017-10-05T15:22:04.584Z,31.10
2017-10-05T15:24:32.340Z,31.20
2017-10-05T15:26:59.822Z,31.40
2017-10-05T15:29:27.366Z,31.50
2017-10-05T15:31:54.940Z,31.60
2017-10-05T15:34:22.390Z,31.80
2017-10-05T15:36:49.845Z,31.90
2017-10-05T15:39:17.306Z,32.30
2017-10-05T15:41:44.766Z,32.60
2017-10-05T15:44:12.222Z,32.80
2017-10-05T15:46:39.686Z,32.70
2017-10-05T15:49:07.142Z,32.80
2017-10-05T15:51:34.613Z,33.10
2017-10-05T15:54:02.161Z,33.40
2017-10-05T15:56:29.621Z,33.60
2017-10-05T15:58:57.867Z,38.80
2017-10-05T16:01:25.439Z,39.30
2017-10-05T16:03:52.993Z,40.80
2017-10-05T16:06:20.454Z,40.40
2017-10-05T16:08:48.009Z,41.40
2017-10-05T16:11:15.470Z,42.30
2017-10-05T16:13:42.922Z,42.60
2017-10-05T16:16:10.712Z,42.40
2017-10-05T16:18:38.177Z,44.00
2017-10-05T16:21:06.391Z,45.60
2017-10-05T16:23:33.852Z,45.80
2017-10-05T16:26:01.313Z,47.40
2017-10-05T16:28:28.767Z,48.90
2017-10-05T16:30:56.214Z,47.80
2017-10-05T16:33:23.717Z,48.00
2017-10-05T16:35:51.166Z,45.90
2017-10-05T16:38:18.728Z,45.90
2017-10-05T16:40:46.257Z,44.90
2017-10-05T16:43:13.712Z,44.70
2017-10-05T16:45:41.174Z,44.60
2017-10-05T16:48:08.766Z,44.30
2017-10-05T16:50:36.318Z,44.10
2017-10-05T16:53:03.802Z,43.70
2017-10-05T16:55:31.442Z,44.80
2017-10-05T16:57:58.897Z,45.10
2017-10-05T17:00:26.465Z,44.90
2017-10-05T17:02:53.929Z,45.60
2017-10-05T17:05:21.473Z,46.20
2017-10-05T17:07:49.070Z,46.60
2017-10-05T17:10:17.309Z,47.50
2017-10-05T17:12:44.764Z,47.40
2017-10-05T17:15:12.358Z,47.30
2017-10-05T17:17:40.613Z,47.10
2017-10-05T17:20:08.078Z,47.10
2017-10-05T17:22:36.341Z,48.00
2017-10-05T17:25:03.910Z,47.70
2017-10-05T17:27:31.381Z,48.00
2017-10-05T17:29:59.604Z,48.10
2017-10-05T17:32:27.090Z,48.10
2017-10-05T17:34:54.658Z,48.20
2017-10-05T17:37:22.123Z,47.90
2017-10-05T17:39:50.394Z,48.30
2017-10-05T17:42:17.857Z,47.80
2017-10-05T17:44:46.088Z,47.80
2017-10-05T17:47:13.576Z,47.80
2017-10-05T17:49:41.036Z,47.90
2017-10-05T17:52:08.597Z,48.60
2017-10-05T17:54:36.059Z,49.10
2017-10-05T17:57:03.532Z,49.80
2017-10-05T17:59:31.787Z,53.90
2017-10-05T18:01:59.342Z,53.80
2017-10-05T18:04:26.900Z,56.10
2017-10-05T18:06:54.462Z,59.00
2017-10-05T18:09:21.918Z,66.50
2017-10-05T18:11:49.379Z,75.00
2017-10-05T18:14:16.834Z,81.40
2017-10-05T18:16:44.396Z,89.50
2017-10-05T18:19:11.914Z,92.70
2017-10-05T18:21:39.351Z,94.40
2017-10-05T18:24:06.805Z,96.30
2017-10-05T18:26:35.017Z,99.50
2017-10-05T18:29:02.505Z,99.50
2017-10-05T18:31:29.966Z,99.90
2017-10-05T18:33:57.440Z,99.90
2017-10-05T18:36:25.651Z,99.90
2017-10-05T18:38:53.122Z,99.90
2017-10-05T18:41:20.577Z,99.90
2017-10-05T18:43:48.023Z,99.90
2017-10-05T18:46:15.485Z,99.90
2017-10-05T18:48:42.934Z,99.90
2017-10-05T18:51:10.417Z,99.90
2017-10-05T18:53:37.894Z,99.90
2017-10-05T18:56:05.451Z,99.90
2017-10-05T18:58:33.829Z,99.90
2017-10-05T19:01:01.538Z,99.90
2017-10-05T19:03:29.755Z,99.90
2017-10-05T19:05:57.203Z,99.90
2017-10-05T19:08:24.666Z,99.90
2017-10-05T19:10:52.146Z,99.90
2017-10-05T19:13:19.614Z,99.90
2017-10-05T19:15:47.066Z,99.90
2017-10-05T19:18:14.542Z,99.90
2017-10-05T19:20:42.900Z,99.90
2017-10-05T19:23:10.398Z,99.90
2017-10-05T19:25:49.282Z,99.90
2017-10-05T19:28:17.550Z,99.90
2017-10-05T19:30:45.118Z,99.90
2017-10-05T19:33:12.670Z,99.90
2017-10-05T19:35:40.144Z,99.90
2017-10-05T19:38:07.607Z,99.90
2017-10-05T19:40:35.838Z,99.90
2017-10-05T19:43:03.481Z,99.90
2017-10-05T19:45:30.979Z,99.90
2017-10-05T19:47:58.455Z,99.90
2017-10-05T19:50:26.710Z,99.90
2017-10-05T19:52:55.048Z,99.90
2017-10-05T19:55:22.546Z,99.90
2017-10-05T19:57:50.015Z,99.90
2017-10-05T20:00:17.566Z,99.90
2017-10-05T20:02:45.042Z,99.90
2017-10-05T20:05:12.499Z,99.90
2017-10-05T20:07:40.053Z,99.90
2017-10-05T20:10:07.508Z,99.90
2017-10-05T20:12:34.962Z,99.90
2017-10-05T20:15:15.202Z,99.90
2017-10-05T20:17:46.496Z,99.90
2017-10-05T20:20:16.314Z,99.90
2017-10-05T20:22:45.238Z,99.90
2017-10-05T20:25:19.330Z,99.90
2017-10-05T20:27:52.402Z,99.90
2017-10-05T20:33:26.674Z,99.90
2017-10-05T20:35:54.138Z,99.90
2017-10-05T20:38:21.601Z,99.90
2017-10-05T20:40:49.075Z,99.90
2017-10-05T20:43:16.549Z,99.90
2017-10-05T20:45:44.810Z,99.90
2017-10-05T20:48:12.287Z,99.90
2017-10-05T20:50:39.727Z,99.90
2017-10-05T20:53:07.382Z,99.90
2017-10-05T20:55:34.840Z,99.90
2017-10-05T20:58:02.302Z,99.90
2017-10-05T21:00:29.871Z,99.90
2017-10-05T21:02:57.328Z,99.90
2017-10-05T21:05:25.002Z,99.90
2017-10-05T21:07:53.227Z,99.90
2017-10-05T21:10:20.671Z,99.90
2017-10-05T21:12:48.170Z,99.90
2017-10-05T21:15:15.626Z,99.90
2017-10-05T21:17:43.084Z,99.90
2017-10-05T21:20:10.541Z,99.90
2017-10-05T21:22:38.003Z,99.90
2017-10-05T21:25:05.467Z,99.90
2017-10-05T21:27:32.935Z,99.90
2017-10-05T21:30:01.156Z,99.90
2017-10-05T21:32:29.010Z,99.90
2017-10-05T21:34:56.512Z,99.90
2017-10-05T21:37:23.954Z,99.90
2017-10-05T21:39:51.446Z,99.90
2017-10-05T21:42:19.686Z,99.90
2017-10-05T21:44:47.162Z,99.90
2017-10-05T21:47:14.618Z,99.90
2017-10-05T21:49:42.064Z,99.90
2017-10-05T21:52:09.518Z,99.90
2017-10-05T21:54:36.970Z,99.90
2017-10-05T21:57:04.446Z,99.90
2017-10-05T21:59:32.002Z,99.90
2017-10-05T22:01:59.564Z,99.90
2017-10-05T22:04:27.015Z,99.90
2017-10-05T22:06:54.490Z,99.90
2017-10-05T22:09:21.934Z,99.90
2017-10-05T22:11:49.495Z,99.90
2017-10-05T22:14:16.943Z,99.90
2017-10-05T22:16:44.406Z,99.90
2017-10-05T22:19:11.876Z,99.90
2017-10-05T22:21:39.319Z,99.90
2017-10-05T22:24:06.782Z,99.90
2017-10-05T22:26:34.231Z,99.90
2017-10-05T22:29:01.686Z,99.90
2017-10-05T22:31:29.142Z,99.90
2017-10-05T22:33:56.603Z,99.90
2017-10-05T22:36:24.063Z,99.90
2017-10-05T22:38:51.653Z,99.90
2017-10-05T22:41:19.079Z,99.90
2017-10-05T22:43:46.543Z,99.90
2017-10-05T22:46:13.991Z,99.90
2017-10-05T22:48:41.554Z,99.90
2017-10-05T22:51:09.006Z,99.90
2017-10-05T22:53:36.490Z,99.90
2017-10-05T22:56:04.746Z,99.90
2017-10-05T22:58:32.199Z,99.90
2017-10-05T23:00:59.654Z,99.90
2017-10-05T23:03:27.106Z,99.90
2017-10-05T23:05:54.575Z,99.90
2017-10-05T23:08:22.031Z,99.90
2017-10-05T23:10:49.499Z,99.90
2017-10-05T23:13:17.002Z,99.90
2017-10-05T23:15:44.537Z,99.90
2017-10-05T23:18:12.746Z,99.90
2017-10-05T23:20:40.206Z,99.90
2017-10-05T23:23:07.662Z,99.90
2017-10-05T23:25:35.156Z,99.90
2017-10-05T23:28:02.612Z,99.90
2017-10-05T23:30:30.058Z,99.90
2017-10-05T23:32:57.515Z,99.90
2017-10-05T23:35:24.965Z,99.90
2017-10-05T23:37:52.435Z,99.90
2017-10-05T23:40:19.887Z,99.90
2017-10-05T23:42:47.339Z,99.90
2017-10-05T23:45:14.817Z,99.90
2017-10-05T23:47:42.262Z,99.90
2017-10-05T23:50:09.715Z,99.90
2017-10-05T23:52:37.174Z,99.90
2017-10-05T23:55:04.628Z,99.90
2017-10-05T23:57:32.111Z,99.90
2017-10-05T23:59:59.554Z,99.90
